sensor_id;sensor_type;location;lat;lon;timestamp;P1;durP1;ratioP1;P2;durP2;ratioP2
55021;SDS011;68328;35.990;-86.756;2023-04-25T00:00:06;10;;;10;;
55021;SDS011;68328;35.990;-86.756;2023-04-25T00:02:31;7;;;7;;
55021;SDS011;68328;35.990;-86.756;2023-04-25T00:04:56;5;;;5;;
55021;SDS011;68328;35.990;-86.756;2023-04-25T00:07:22;7;;;7;;
55021;SDS011;68328;35.990;-86.756;2023-04-25T00:09:47;8;;;7;;
55021;SDS011;68328;35.990;-86.756;2023-04-25T00:12:13;6;;;6;;
55021;SDS011;68328;35.990;-86.756;2023-04-25T00:14:39;4;;;4;;
55021;SDS011;68328;35.990;-86.756;2023-04-25T00:17:03;7;;;7;;
55021;SDS011;68328;35.990;-86.756;2023-04-25T00:19:29;8;;;7;;
55021;SDS011;68328;35.990;-86.756;2023-04-25T00:21:53;5;;;5;;
55021;SDS011;68328;35.990;-86.756;2023-04-25T00:24:19;7;;;7;;
55021;SDS011;68328;35.990;-86.756;2023-04-25T00:26:44;8;;;8;;
55021;SDS011;68328;35.990;-86.756;2023-04-25T00:29:09;7;;;7;;
55021;SDS011;68328;35.990;-86.756;2023-04-25T00:31:36;5;;;5;;
55021;SDS011;68328;35.990;-86.756;2023-04-25T00:34:00;6;;;6;;
55021;SDS011;68328;35.990;-86.756;2023-04-25T00:36:26;7;;;7;;
55021;SDS011;68328;35.990;-86.756;2023-04-25T00:38:54;7;;;7;;
55021;SDS011;68328;35.990;-86.756;2023-04-25T00:41:16;9;;;8;;
55021;SDS011;68328;35.990;-86.756;2023-04-25T00:43:42;10;;;8;;
55021;SDS011;68328;35.990;-86.756;2023-04-25T00:46:08;7;;;6;;
55021;SDS011;68328;35.990;-86.756;2023-04-25T00:48:32;9;;;6;;
55021;SDS011;68328;35.990;-86.756;2023-04-25T00:50:58;10;;;8;;
55021;SDS011;68328;35.990;-86.756;2023-04-25T00:53:24;6;;;5;;
55021;SDS011;68328;35.990;-86.756;2023-04-25T00:55:48;6;;;5;;
55021;SDS011;68328;35.990;-86.756;2023-04-25T00:58:13;7;;;7;;
55021;SDS011;68328;35.990;-86.756;2023-04-25T01:00:39;7;;;7;;
55021;SDS011;68328;35.990;-86.756;2023-04-25T01:03:04;6;;;6;;
55021;SDS011;68328;35.990;-86.756;2023-04-25T01:05:30;8;;;7;;
55021;SDS011;68328;35.990;-86.756;2023-04-25T01:07:55;8;;;8;;
55021;SDS011;68328;35.990;-86.756;2023-04-25T01:10:21;6;;;6;;
55021;SDS011;68328;35.990;-86.756;2023-04-25T01:12:45;9;;;7;;
55021;SDS011;68328;35.990;-86.756;2023-04-25T01:15:11;6;;;6;;
55021;SDS011;68328;35.990;-86.756;2023-04-25T01:17:36;7;;;7;;
55021;SDS011;68328;35.990;-86.756;2023-04-25T01:20:02;7;;;7;;
55021;SDS011;68328;35.990;-86.756;2023-04-25T01:22:27;7;;;7;;
55021;SDS011;68328;35.990;-86.756;2023-04-25T01:24:52;7;;;7;;
55021;SDS011;68328;35.990;-86.756;2023-04-25T01:27:18;9;;;8;;
55021;SDS011;68328;35.990;-86.756;2023-04-25T01:29:42;7;;;7;;
55021;SDS011;68328;35.990;-86.756;2023-04-25T01:32:08;7;;;7;;
55021;SDS011;68328;35.990;-86.756;2023-04-25T01:34:33;9;;;9;;
55021;SDS011;68328;35.990;-86.756;2023-04-25T01:36:59;9;;;9;;
55021;SDS011;68328;35.990;-86.756;2023-04-25T01:39:24;5;;;5;;
55021;SDS011;68328;35.990;-86.756;2023-04-25T01:41:49;15;;;14;;
55021;SDS011;68328;35.990;-86.756;2023-04-25T01:44:15;6;;;6;;
55021;SDS011;68328;35.990;-86.756;2023-04-25T01:46:39;6;;;6;;
55021;SDS011;68328;35.990;-86.756;2023-04-25T01:49:05;13;;;9;;
55021;SDS011;68328;35.990;-86.756;2023-04-25T01:51:30;8;;;8;;
55021;SDS011;68328;35.990;-86.756;2023-04-25T01:53:55;6;;;6;;
55021;SDS011;68328;35.990;-86.756;2023-04-25T01:56:21;10;;;8;;
55021;SDS011;68328;35.990;-86.756;2023-04-25T01:58:46;7;;;7;;
55021;SDS011;68328;35.990;-86.756;2023-04-25T02:01:12;6;;;6;;
55021;SDS011;68328;35.990;-86.756;2023-04-25T02:03:38;8;;;8;;
55021;SDS011;68328;35.990;-86.756;2023-04-25T02:06:02;6;;;6;;
55021;SDS011;68328;35.990;-86.756;2023-04-25T02:08:28;7;;;7;;
55021;SDS011;68328;35.990;-86.756;2023-04-25T02:10:54;7;;;7;;
55021;SDS011;68328;35.990;-86.756;2023-04-25T02:13:19;9;;;9;;
55021;SDS011;68328;35.990;-86.756;2023-04-25T02:15:45;6;;;6;;
55021;SDS011;68328;35.990;-86.756;2023-04-25T02:18:09;7;;;7;;
55021;SDS011;68328;35.990;-86.756;2023-04-25T02:20:35;6;;;6;;
55021;SDS011;68328;35.990;-86.756;2023-04-25T02:23:00;10;;;9;;
55021;SDS011;68328;35.990;-86.756;2023-04-25T02:25:25;6;;;6;;
55021;SDS011;68328;35.990;-86.756;2023-04-25T02:27:51;8;;;7;;
55021;SDS011;68328;35.990;-86.756;2023-04-25T02:30:17;10;;;8;;
55021;SDS011;68328;35.990;-86.756;2023-04-25T02:32:41;8;;;8;;
55021;SDS011;68328;35.990;-86.756;2023-04-25T02:35:07;7;;;7;;
55021;SDS011;68328;35.990;-86.756;2023-04-25T02:37:32;9;;;8;;
55021;SDS011;68328;35.990;-86.756;2023-04-25T02:39:57;8;;;8;;
55021;SDS011;68328;35.990;-86.756;2023-04-25T02:42:23;6;;;6;;
55021;SDS011;68328;35.990;-86.756;2023-04-25T02:44:49;7;;;7;;
55021;SDS011;68328;35.990;-86.756;2023-04-25T02:47:14;8;;;8;;
55021;SDS011;68328;35.990;-86.756;2023-04-25T02:49:39;9;;;7;;
55021;SDS011;68328;35.990;-86.756;2023-04-25T02:52:05;6;;;6;;
55021;SDS011;68328;35.990;-86.756;2023-04-25T02:54:29;7;;;7;;
55021;SDS011;68328;35.990;-86.756;2023-04-25T02:56:55;5;;;5;;
55021;SDS011;68328;35.990;-86.756;2023-04-25T02:59:21;8;;;8;;
55021;SDS011;68328;35.990;-86.756;2023-04-25T03:01:46;8;;;8;;
55021;SDS011;68328;35.990;-86.756;2023-04-25T03:04:10;7;;;7;;
55021;SDS011;68328;35.990;-86.756;2023-04-25T03:06:36;5;;;5;;
55021;SDS011;68328;35.990;-86.756;2023-04-25T03:09:02;6;;;6;;
55021;SDS011;68328;35.990;-86.756;2023-04-25T03:11:27;8;;;6;;
55021;SDS011;68328;35.990;-86.756;2023-04-25T03:13:52;7;;;7;;
55021;SDS011;68328;35.990;-86.756;2023-04-25T03:16:17;6;;;6;;
55021;SDS011;68328;35.990;-86.756;2023-04-25T03:18:43;9;;;7;;
55021;SDS011;68328;35.990;-86.756;2023-04-25T03:21:09;6;;;6;;
55021;SDS011;68328;35.990;-86.756;2023-04-25T03:23:34;6;;;6;;
55021;SDS011;68328;35.990;-86.756;2023-04-25T03:25:59;7;;;7;;
55021;SDS011;68328;35.990;-86.756;2023-04-25T03:28:26;8;;;6;;
55021;SDS011;68328;35.990;-86.756;2023-04-25T03:30:50;8;;;8;;
55021;SDS011;68328;35.990;-86.756;2023-04-25T03:33:15;8;;;8;;
55021;SDS011;68328;35.990;-86.756;2023-04-25T03:35:41;8;;;8;;
55021;SDS011;68328;35.990;-86.756;2023-04-25T03:38:06;8;;;7;;
55021;SDS011;68328;35.990;-86.756;2023-04-25T03:40:33;7;;;7;;
55021;SDS011;68328;35.990;-86.756;2023-04-25T03:42:57;7;;;7;;
55021;SDS011;68328;35.990;-86.756;2023-04-25T03:45:22;7;;;7;;
55021;SDS011;68328;35.990;-86.756;2023-04-25T03:47:48;7;;;5;;
55021;SDS011;68328;35.990;-86.756;2023-04-25T03:50:14;6;;;6;;
55021;SDS011;68328;35.990;-86.756;2023-04-25T03:52:38;7;;;7;;
55021;SDS011;68328;35.990;-86.756;2023-04-25T03:55:04;9;;;8;;
55021;SDS011;68328;35.990;-86.756;2023-04-25T03:57:29;9;;;7;;
55021;SDS011;68328;35.990;-86.756;2023-04-25T03:59:54;11;;;9;;
55021;SDS011;68328;35.990;-86.756;2023-04-25T04:02:20;10;;;8;;
55021;SDS011;68328;35.990;-86.756;2023-04-25T04:04:45;8;;;8;;
55021;SDS011;68328;35.990;-86.756;2023-04-25T04:07:11;7;;;7;;
55021;SDS011;68328;35.990;-86.756;2023-04-25T04:09:36;8;;;8;;
55021;SDS011;68328;35.990;-86.756;2023-04-25T04:12:01;11;;;10;;
55021;SDS011;68328;35.990;-86.756;2023-04-25T04:14:28;10;;;9;;
55021;SDS011;68328;35.990;-86.756;2023-04-25T04:16:52;10;;;10;;
55021;SDS011;68328;35.990;-86.756;2023-04-25T04:19:18;8;;;8;;
55021;SDS011;68328;35.990;-86.756;2023-04-25T04:21:43;7;;;7;;
55021;SDS011;68328;35.990;-86.756;2023-04-25T04:24:09;8;;;8;;
55021;SDS011;68328;35.990;-86.756;2023-04-25T04:26:33;7;;;7;;
55021;SDS011;68328;35.990;-86.756;2023-04-25T04:28:58;8;;;8;;
55021;SDS011;68328;35.990;-86.756;2023-04-25T04:31:23;8;;;8;;
55021;SDS011;68328;35.990;-86.756;2023-04-25T04:33:49;9;;;9;;
55021;SDS011;68328;35.990;-86.756;2023-04-25T04:36:15;9;;;9;;
55021;SDS011;68328;35.990;-86.756;2023-04-25T04:38:40;9;;;8;;
55021;SDS011;68328;35.990;-86.756;2023-04-25T04:41:05;9;;;9;;
55021;SDS011;68328;35.990;-86.756;2023-04-25T04:43:30;9;;;8;;
55021;SDS011;68328;35.990;-86.756;2023-04-25T04:45:56;10;;;10;;
55021;SDS011;68328;35.990;-86.756;2023-04-25T04:48:21;7;;;7;;
55021;SDS011;68328;35.990;-86.756;2023-04-25T04:50:47;7;;;7;;
55021;SDS011;68328;35.990;-86.756;2023-04-25T04:53:12;9;;;9;;
55021;SDS011;68328;35.990;-86.756;2023-04-25T04:55:37;9;;;9;;
55021;SDS011;68328;35.990;-86.756;2023-04-25T04:58:03;11;;;10;;
55021;SDS011;68328;35.990;-86.756;2023-04-25T05:00:30;12;;;10;;
55021;SDS011;68328;35.990;-86.756;2023-04-25T05:02:54;9;;;9;;
55021;SDS011;68328;35.990;-86.756;2023-04-25T05:05:19;10;;;10;;
55021;SDS011;68328;35.990;-86.756;2023-04-25T05:07:44;12;;;11;;
55021;SDS011;68328;35.990;-86.756;2023-04-25T05:10:10;18;;;14;;
55021;SDS011;68328;35.990;-86.756;2023-04-25T05:12:36;11;;;11;;
55021;SDS011;68328;35.990;-86.756;2023-04-25T05:15:04;11;;;10;;
55021;SDS011;68328;35.990;-86.756;2023-04-25T05:17:26;10;;;8;;
55021;SDS011;68328;35.990;-86.756;2023-04-25T05:19:51;16;;;13;;
55021;SDS011;68328;35.990;-86.756;2023-04-25T05:22:16;12;;;10;;
55021;SDS011;68328;35.990;-86.756;2023-04-25T05:24:42;11;;;11;;
55021;SDS011;68328;35.990;-86.756;2023-04-25T05:27:08;9;;;9;;
55021;SDS011;68328;35.990;-86.756;2023-04-25T05:29:33;9;;;9;;
55021;SDS011;68328;35.990;-86.756;2023-04-25T05:31:59;9;;;9;;
55021;SDS011;68328;35.990;-86.756;2023-04-25T05:34:25;11;;;10;;
55021;SDS011;68328;35.990;-86.756;2023-04-25T05:36:49;10;;;10;;
55021;SDS011;68328;35.990;-86.756;2023-04-25T05:39:15;10;;;9;;
55021;SDS011;68328;35.990;-86.756;2023-04-25T05:41:40;14;;;13;;
55021;SDS011;68328;35.990;-86.756;2023-04-25T05:44:06;10;;;10;;
55021;SDS011;68328;35.990;-86.756;2023-04-25T05:46:32;9;;;9;;
55021;SDS011;68328;35.990;-86.756;2023-04-25T05:48:57;11;;;10;;
55021;SDS011;68328;35.990;-86.756;2023-04-25T05:51:22;11;;;11;;
55021;SDS011;68328;35.990;-86.756;2023-04-25T05:53:48;10;;;8;;
55021;SDS011;68328;35.990;-86.756;2023-04-25T05:56:13;12;;;12;;
55021;SDS011;68328;35.990;-86.756;2023-04-25T05:58:41;11;;;11;;
55021;SDS011;68328;35.990;-86.756;2023-04-25T06:01:04;10;;;10;;
55021;SDS011;68328;35.990;-86.756;2023-04-25T06:03:30;9;;;9;;
55021;SDS011;68328;35.990;-86.756;2023-04-25T06:05:55;10;;;10;;
55021;SDS011;68328;35.990;-86.756;2023-04-25T06:08:21;10;;;10;;
55021;SDS011;68328;35.990;-86.756;2023-04-25T06:10:46;11;;;10;;
55021;SDS011;68328;35.990;-86.756;2023-04-25T06:13:11;11;;;10;;
55021;SDS011;68328;35.990;-86.756;2023-04-25T06:15:37;12;;;11;;
55021;SDS011;68328;35.990;-86.756;2023-04-25T06:18:02;10;;;9;;
55021;SDS011;68328;35.990;-86.756;2023-04-25T06:20:28;11;;;11;;
55021;SDS011;68328;35.990;-86.756;2023-04-25T06:22:53;16;;;14;;
55021;SDS011;68328;35.990;-86.756;2023-04-25T06:25:18;11;;;11;;
55021;SDS011;68328;35.990;-86.756;2023-04-25T06:27:44;13;;;11;;
55021;SDS011;68328;35.990;-86.756;2023-04-25T06:30:10;15;;;15;;
55021;SDS011;68328;35.990;-86.756;2023-04-25T06:32:34;10;;;10;;
55021;SDS011;68328;35.990;-86.756;2023-04-25T06:35:00;11;;;11;;
55021;SDS011;68328;35.990;-86.756;2023-04-25T06:37:24;12;;;11;;
55021;SDS011;68328;35.990;-86.756;2023-04-25T06:39:50;13;;;12;;
55021;SDS011;68328;35.990;-86.756;2023-04-25T06:42:15;14;;;13;;
55021;SDS011;68328;35.990;-86.756;2023-04-25T06:44:41;14;;;13;;
55021;SDS011;68328;35.990;-86.756;2023-04-25T06:47:07;15;;;13;;
55021;SDS011;68328;35.990;-86.756;2023-04-25T06:49:33;13;;;13;;
55021;SDS011;68328;35.990;-86.756;2023-04-25T06:51:57;9;;;9;;
55021;SDS011;68328;35.990;-86.756;2023-04-25T06:54:22;13;;;12;;
55021;SDS011;68328;35.990;-86.756;2023-04-25T06:56:48;13;;;11;;
55021;SDS011;68328;35.990;-86.756;2023-04-25T06:59:14;12;;;12;;
55021;SDS011;68328;35.990;-86.756;2023-04-25T07:01:40;14;;;13;;
55021;SDS011;68328;35.990;-86.756;2023-04-25T07:04:04;12;;;12;;
55021;SDS011;68328;35.990;-86.756;2023-04-25T07:06:30;16;;;16;;
55021;SDS011;68328;35.990;-86.756;2023-04-25T07:08:56;11;;;11;;
55021;SDS011;68328;35.990;-86.756;2023-04-25T07:11:21;14;;;14;;
55021;SDS011;68328;35.990;-86.756;2023-04-25T07:13:47;11;;;11;;
55021;SDS011;68328;35.990;-86.756;2023-04-25T07:16:12;12;;;12;;
55021;SDS011;68328;35.990;-86.756;2023-04-25T07:18:38;12;;;12;;
55021;SDS011;68328;35.990;-86.756;2023-04-25T07:21:03;13;;;13;;
55021;SDS011;68328;35.990;-86.756;2023-04-25T07:23:29;10;;;10;;
55021;SDS011;68328;35.990;-86.756;2023-04-25T07:25:54;18;;;18;;
55021;SDS011;68328;35.990;-86.756;2023-04-25T07:28:18;15;;;14;;
55021;SDS011;68328;35.990;-86.756;2023-04-25T07:30:45;12;;;11;;
55021;SDS011;68328;35.990;-86.756;2023-04-25T07:33:09;11;;;11;;
55021;SDS011;68328;35.990;-86.756;2023-04-25T07:35:35;16;;;13;;
55021;SDS011;68328;35.990;-86.756;2023-04-25T07:38:01;14;;;13;;
55021;SDS011;68328;35.990;-86.756;2023-04-25T07:40:26;11;;;10;;
55021;SDS011;68328;35.990;-86.756;2023-04-25T07:42:51;13;;;12;;
55021;SDS011;68328;35.990;-86.756;2023-04-25T07:45:16;10;;;10;;
55021;SDS011;68328;35.990;-86.756;2023-04-25T07:47:42;12;;;11;;
55021;SDS011;68328;35.990;-86.756;2023-04-25T07:50:08;15;;;15;;
55021;SDS011;68328;35.990;-86.756;2023-04-25T07:52:32;19;;;18;;
55021;SDS011;68328;35.990;-86.756;2023-04-25T07:54:58;18;;;16;;
55021;SDS011;68328;35.990;-86.756;2023-04-25T07:57:24;13;;;13;;
55021;SDS011;68328;35.990;-86.756;2023-04-25T07:59:49;11;;;11;;
55021;SDS011;68328;35.990;-86.756;2023-04-25T08:02:16;20;;;19;;
55021;SDS011;68328;35.990;-86.756;2023-04-25T08:04:40;10;;;10;;
55021;SDS011;68328;35.990;-86.756;2023-04-25T08:07:06;17;;;15;;
55021;SDS011;68328;35.990;-86.756;2023-04-25T08:09:31;13;;;13;;
55021;SDS011;68328;35.990;-86.756;2023-04-25T08:11:57;10;;;10;;
55021;SDS011;68328;35.990;-86.756;2023-04-25T08:14:23;13;;;13;;
55021;SDS011;68328;35.990;-86.756;2023-04-25T08:16:47;15;;;11;;
55021;SDS011;68328;35.990;-86.756;2023-04-25T08:19:13;11;;;11;;
55021;SDS011;68328;35.990;-86.756;2023-04-25T08:21:38;13;;;13;;
55021;SDS011;68328;35.990;-86.756;2023-04-25T08:24:03;15;;;14;;
55021;SDS011;68328;35.990;-86.756;2023-04-25T08:26:29;12;;;12;;
55021;SDS011;68328;35.990;-86.756;2023-04-25T08:28:55;16;;;16;;
55021;SDS011;68328;35.990;-86.756;2023-04-25T08:31:19;14;;;13;;
55021;SDS011;68328;35.990;-86.756;2023-04-25T08:33:44;14;;;14;;
55021;SDS011;68328;35.990;-86.756;2023-04-25T08:36:10;13;;;11;;
55021;SDS011;68328;35.990;-86.756;2023-04-25T08:38:37;14;;;14;;
55021;SDS011;68328;35.990;-86.756;2023-04-25T08:41:00;14;;;14;;
55021;SDS011;68328;35.990;-86.756;2023-04-25T08:43:26;11;;;11;;
55021;SDS011;68328;35.990;-86.756;2023-04-25T08:45:52;16;;;15;;
55021;SDS011;68328;35.990;-86.756;2023-04-25T08:48:17;13;;;13;;
55021;SDS011;68328;35.990;-86.756;2023-04-25T08:50:43;13;;;13;;
55021;SDS011;68328;35.990;-86.756;2023-04-25T08:53:08;17;;;17;;
55021;SDS011;68328;35.990;-86.756;2023-04-25T08:55:33;12;;;12;;
55021;SDS011;68328;35.990;-86.756;2023-04-25T08:57:59;13;;;13;;
55021;SDS011;68328;35.990;-86.756;2023-04-25T09:00:23;15;;;15;;
55021;SDS011;68328;35.990;-86.756;2023-04-25T09:02:49;12;;;12;;
55021;SDS011;68328;35.990;-86.756;2023-04-25T09:05:14;16;;;15;;
55021;SDS011;68328;35.990;-86.756;2023-04-25T09:07:40;13;;;12;;
55021;SDS011;68328;35.990;-86.756;2023-04-25T09:10:05;15;;;15;;
55021;SDS011;68328;35.990;-86.756;2023-04-25T09:12:31;17;;;15;;
55021;SDS011;68328;35.990;-86.756;2023-04-25T09:15:02;12;;;12;;
55021;SDS011;68328;35.990;-86.756;2023-04-25T09:17:21;15;;;15;;
55021;SDS011;68328;35.990;-86.756;2023-04-25T09:19:46;14;;;13;;
55021;SDS011;68328;35.990;-86.756;2023-04-25T09:22:12;13;;;13;;
55021;SDS011;68328;35.990;-86.756;2023-04-25T09:24:38;14;;;13;;
55021;SDS011;68328;35.990;-86.756;2023-04-25T09:27:03;15;;;13;;
55021;SDS011;68328;35.990;-86.756;2023-04-25T09:29:29;15;;;14;;
55021;SDS011;68328;35.990;-86.756;2023-04-25T09:34:21;11;;;11;;
55021;SDS011;68328;35.990;-86.756;2023-04-25T09:36:44;12;;;11;;
55021;SDS011;68328;35.990;-86.756;2023-04-25T09:39:12;10;;;10;;
55021;SDS011;68328;35.990;-86.756;2023-04-25T09:41:37;13;;;11;;
55021;SDS011;68328;35.990;-86.756;2023-04-25T09:44:01;13;;;13;;
55021;SDS011;68328;35.990;-86.756;2023-04-25T09:46:25;14;;;14;;
55021;SDS011;68328;35.990;-86.756;2023-04-25T09:48:50;12;;;12;;
55021;SDS011;68328;35.990;-86.756;2023-04-25T09:51:17;12;;;11;;
55021;SDS011;68328;35.990;-86.756;2023-04-25T09:53:42;12;;;11;;
55021;SDS011;68328;35.990;-86.756;2023-04-25T09:56:08;16;;;16;;
55021;SDS011;68328;35.990;-86.756;2023-04-25T09:58:32;13;;;11;;
55021;SDS011;68328;35.990;-86.756;2023-04-25T10:00:59;20;;;19;;
55021;SDS011;68328;35.990;-86.756;2023-04-25T10:03:23;12;;;11;;
55021;SDS011;68328;35.990;-86.756;2023-04-25T10:05:48;13;;;13;;
55021;SDS011;68328;35.990;-86.756;2023-04-25T10:08:14;12;;;12;;
55021;SDS011;68328;35.990;-86.756;2023-04-25T10:10:39;16;;;14;;
55021;SDS011;68328;35.990;-86.756;2023-04-25T10:13:04;18;;;17;;
55021;SDS011;68328;35.990;-86.756;2023-04-25T10:15:30;15;;;14;;
55021;SDS011;68328;35.990;-86.756;2023-04-25T10:17:55;20;;;19;;
55021;SDS011;68328;35.990;-86.756;2023-04-25T10:20:21;16;;;16;;
55021;SDS011;68328;35.990;-86.756;2023-04-25T10:22:46;12;;;11;;
55021;SDS011;68328;35.990;-86.756;2023-04-25T10:25:11;14;;;13;;
55021;SDS011;68328;35.990;-86.756;2023-04-25T10:27:36;12;;;12;;
55021;SDS011;68328;35.990;-86.756;2023-04-25T10:30:02;10;;;9;;
55021;SDS011;68328;35.990;-86.756;2023-04-25T10:32:27;11;;;11;;
55021;SDS011;68328;35.990;-86.756;2023-04-25T10:34:52;14;;;13;;
55021;SDS011;68328;35.990;-86.756;2023-04-25T10:37:19;22;;;21;;
55021;SDS011;68328;35.990;-86.756;2023-04-25T10:39:44;14;;;12;;
55021;SDS011;68328;35.990;-86.756;2023-04-25T10:42:09;12;;;12;;
55021;SDS011;68328;35.990;-86.756;2023-04-25T10:44:36;12;;;12;;
55021;SDS011;68328;35.990;-86.756;2023-04-25T10:47:00;14;;;14;;
55021;SDS011;68328;35.990;-86.756;2023-04-25T10:49:28;14;;;14;;
55021;SDS011;68328;35.990;-86.756;2023-04-25T10:51:58;13;;;12;;
55021;SDS011;68328;35.990;-86.756;2023-04-25T10:54:15;13;;;13;;
55021;SDS011;68328;35.990;-86.756;2023-04-25T10:56:41;14;;;13;;
55021;SDS011;68328;35.990;-86.756;2023-04-25T10:59:06;11;;;11;;
55021;SDS011;68328;35.990;-86.756;2023-04-25T11:01:35;20;;;14;;
55021;SDS011;68328;35.990;-86.756;2023-04-25T11:03:57;18;;;16;;
55021;SDS011;68328;35.990;-86.756;2023-04-25T11:06:22;12;;;12;;
55021;SDS011;68328;35.990;-86.756;2023-04-25T11:08:48;10;;;10;;
55021;SDS011;68328;35.990;-86.756;2023-04-25T11:11:12;12;;;11;;
55021;SDS011;68328;35.990;-86.756;2023-04-25T11:13:38;15;;;12;;
55021;SDS011;68328;35.990;-86.756;2023-04-25T11:16:03;15;;;14;;
55021;SDS011;68328;35.990;-86.756;2023-04-25T11:18:28;14;;;12;;
55021;SDS011;68328;35.990;-86.756;2023-04-25T11:20:53;12;;;12;;
55021;SDS011;68328;35.990;-86.756;2023-04-25T11:23:19;15;;;14;;
55021;SDS011;68328;35.990;-86.756;2023-04-25T11:25:44;13;;;13;;
55021;SDS011;68328;35.990;-86.756;2023-04-25T11:28:10;15;;;13;;
55021;SDS011;68328;35.990;-86.756;2023-04-25T11:30:35;12;;;11;;
55021;SDS011;68328;35.990;-86.756;2023-04-25T11:33:00;10;;;9;;
55021;SDS011;68328;35.990;-86.756;2023-04-25T11:35:26;10;;;10;;
55021;SDS011;68328;35.990;-86.756;2023-04-25T11:37:53;11;;;10;;
55021;SDS011;68328;35.990;-86.756;2023-04-25T11:40:17;11;;;11;;
55021;SDS011;68328;35.990;-86.756;2023-04-25T11:42:44;15;;;11;;
55021;SDS011;68328;35.990;-86.756;2023-04-25T11:45:08;10;;;10;;
55021;SDS011;68328;35.990;-86.756;2023-04-25T11:47:33;11;;;11;;
55021;SDS011;68328;35.990;-86.756;2023-04-25T11:49:58;10;;;10;;
55021;SDS011;68328;35.990;-86.756;2023-04-25T11:52:23;10;;;10;;
55021;SDS011;68328;35.990;-86.756;2023-04-25T11:54:51;12;;;11;;
55021;SDS011;68328;35.990;-86.756;2023-04-25T11:57:14;11;;;11;;
55021;SDS011;68328;35.990;-86.756;2023-04-25T11:59:40;11;;;11;;
55021;SDS011;68328;35.990;-86.756;2023-04-25T12:02:06;12;;;10;;
55021;SDS011;68328;35.990;-86.756;2023-04-25T12:04:31;17;;;16;;
55021;SDS011;68328;35.990;-86.756;2023-04-25T12:06:56;12;;;12;;
55021;SDS011;68328;35.990;-86.756;2023-04-25T12:09:27;12;;;12;;
55021;SDS011;68328;35.990;-86.756;2023-04-25T12:11:48;15;;;10;;
55021;SDS011;68328;35.990;-86.756;2023-04-25T12:16:41;9;;;9;;
55021;SDS011;68328;35.990;-86.756;2023-04-25T12:19:03;11;;;10;;
55021;SDS011;68328;35.990;-86.756;2023-04-25T12:21:28;11;;;11;;
55021;SDS011;68328;35.990;-86.756;2023-04-25T12:23:54;21;;;19;;
55021;SDS011;68328;35.990;-86.756;2023-04-25T12:26:18;13;;;13;;
55021;SDS011;68328;35.990;-86.756;2023-04-25T12:28:45;27;;;23;;
55021;SDS011;68328;35.990;-86.756;2023-04-25T12:31:10;14;;;13;;
55021;SDS011;68328;35.990;-86.756;2023-04-25T12:33:36;14;;;14;;
55021;SDS011;68328;35.990;-86.756;2023-04-25T12:36:01;12;;;10;;
55021;SDS011;68328;35.990;-86.756;2023-04-25T12:38:27;13;;;13;;
55021;SDS011;68328;35.990;-86.756;2023-04-25T12:40:51;11;;;11;;
55021;SDS011;68328;35.990;-86.756;2023-04-25T12:43:16;13;;;12;;
55021;SDS011;68328;35.990;-86.756;2023-04-25T12:45:44;16;;;13;;
55021;SDS011;68328;35.990;-86.756;2023-04-25T12:48:07;16;;;14;;
55021;SDS011;68328;35.990;-86.756;2023-04-25T12:50:32;11;;;9;;
55021;SDS011;68328;35.990;-86.756;2023-04-25T12:52:58;13;;;13;;
55021;SDS011;68328;35.990;-86.756;2023-04-25T12:55:23;9;;;8;;
55021;SDS011;68328;35.990;-86.756;2023-04-25T12:57:48;12;;;12;;
55021;SDS011;68328;35.990;-86.756;2023-04-25T13:02:39;12;;;12;;
55021;SDS011;68328;35.990;-86.756;2023-04-25T13:05:04;10;;;10;;
55021;SDS011;68328;35.990;-86.756;2023-04-25T13:07:30;12;;;12;;
55021;SDS011;68328;35.990;-86.756;2023-04-25T13:09:54;12;;;10;;
55021;SDS011;68328;35.990;-86.756;2023-04-25T13:12:20;13;;;12;;
55021;SDS011;68328;35.990;-86.756;2023-04-25T13:14:45;10;;;9;;
55021;SDS011;68328;35.990;-86.756;2023-04-25T13:17:10;12;;;11;;
55021;SDS011;68328;35.990;-86.756;2023-04-25T13:19:36;13;;;13;;
55021;SDS011;68328;35.990;-86.756;2023-04-25T13:22:01;10;;;9;;
55021;SDS011;68328;35.990;-86.756;2023-04-25T13:31:44;9;;;8;;
55021;SDS011;68328;35.990;-86.756;2023-04-25T13:34:08;10;;;10;;
55021;SDS011;68328;35.990;-86.756;2023-04-25T13:36:33;11;;;9;;
55021;SDS011;68328;35.990;-86.756;2023-04-25T13:38:59;9;;;9;;
55021;SDS011;68328;35.990;-86.756;2023-04-25T13:41:25;10;;;10;;
55021;SDS011;68328;35.990;-86.756;2023-04-25T13:43:50;8;;;8;;
55021;SDS011;68328;35.990;-86.756;2023-04-25T13:46:15;9;;;8;;
55021;SDS011;68328;35.990;-86.756;2023-04-25T13:48:40;12;;;9;;
55021;SDS011;68328;35.990;-86.756;2023-04-25T13:51:06;14;;;13;;
55021;SDS011;68328;35.990;-86.756;2023-04-25T13:53:31;6;;;6;;
55021;SDS011;68328;35.990;-86.756;2023-04-25T13:55:56;8;;;8;;
55021;SDS011;68328;35.990;-86.756;2023-04-25T13:58:21;7;;;7;;
55021;SDS011;68328;35.990;-86.756;2023-04-25T14:00:47;8;;;8;;
55021;SDS011;68328;35.990;-86.756;2023-04-25T14:03:13;7;;;7;;
55021;SDS011;68328;35.990;-86.756;2023-04-25T14:05:37;9;;;8;;
55021;SDS011;68328;35.990;-86.756;2023-04-25T14:08:04;7;;;7;;
55021;SDS011;68328;35.990;-86.756;2023-04-25T14:10:28;7;;;7;;
55021;SDS011;68328;35.990;-86.756;2023-04-25T14:12:54;7;;;7;;
55021;SDS011;68328;35.990;-86.756;2023-04-25T14:15:19;8;;;8;;
55021;SDS011;68328;35.990;-86.756;2023-04-25T14:17:44;9;;;8;;
55021;SDS011;68328;35.990;-86.756;2023-04-25T14:20:10;9;;;8;;
55021;SDS011;68328;35.990;-86.756;2023-04-25T14:22:35;7;;;7;;
55021;SDS011;68328;35.990;-86.756;2023-04-25T14:25:00;8;;;7;;
55021;SDS011;68328;35.990;-86.756;2023-04-25T14:27:25;7;;;6;;
55021;SDS011;68328;35.990;-86.756;2023-04-25T14:29:50;7;;;7;;
55021;SDS011;68328;35.990;-86.756;2023-04-25T14:32:16;6;;;6;;
55021;SDS011;68328;35.990;-86.756;2023-04-25T14:34:42;6;;;6;;
55021;SDS011;68328;35.990;-86.756;2023-04-25T14:37:07;6;;;6;;
55021;SDS011;68328;35.990;-86.756;2023-04-25T14:39:33;7;;;7;;
55021;SDS011;68328;35.990;-86.756;2023-04-25T14:41:57;6;;;5;;
55021;SDS011;68328;35.990;-86.756;2023-04-25T14:44:22;9;;;7;;
55021;SDS011;68328;35.990;-86.756;2023-04-25T14:46:49;8;;;8;;
55021;SDS011;68328;35.990;-86.756;2023-04-25T14:49:13;6;;;6;;
55021;SDS011;68328;35.990;-86.756;2023-04-25T14:51:38;7;;;7;;
55021;SDS011;68328;35.990;-86.756;2023-04-25T14:54:04;12;;;9;;
55021;SDS011;68328;35.990;-86.756;2023-04-25T14:56:30;8;;;6;;
55021;SDS011;68328;35.990;-86.756;2023-04-25T14:58:55;7;;;7;;
55021;SDS011;68328;35.990;-86.756;2023-04-25T15:01:20;8;;;8;;
55021;SDS011;68328;35.990;-86.756;2023-04-25T15:03:46;7;;;7;;
55021;SDS011;68328;35.990;-86.756;2023-04-25T15:06:12;7;;;7;;
55021;SDS011;68328;35.990;-86.756;2023-04-25T15:08:36;7;;;7;;
55021;SDS011;68328;35.990;-86.756;2023-04-25T15:11:02;6;;;6;;
55021;SDS011;68328;35.990;-86.756;2023-04-25T15:13:28;9;;;9;;
55021;SDS011;68328;35.990;-86.756;2023-04-25T15:15:53;8;;;8;;
55021;SDS011;68328;35.990;-86.756;2023-04-25T15:18:19;8;;;8;;
55021;SDS011;68328;35.990;-86.756;2023-04-25T15:20:44;6;;;6;;
55021;SDS011;68328;35.990;-86.756;2023-04-25T15:23:09;7;;;7;;
55021;SDS011;68328;35.990;-86.756;2023-04-25T15:25:34;7;;;7;;
55021;SDS011;68328;35.990;-86.756;2023-04-25T15:28:00;7;;;7;;
55021;SDS011;68328;35.990;-86.756;2023-04-25T15:30:25;8;;;8;;